Time;durP1;ratioP1;P1;durP2;ratioP2;P2;SDS_P1;SDS_P2;PMS_P1;PMS_P2;Temp;Humidity;BMP_temperature;BMP_pressure;BME280_temperature;BME280_humidity;BME280_pressure;Samples;Min_cycle;Max_cycle;Signal;HPM_P1;HPM_P2
2024/03/04 00:01:45;;;;;;;15.73;13.35;;;13.80;78.30;;;;;;4806824;29;20034;-90
2024/03/04 00:04:14;;;;;;;18.38;14.80;;;13.70;78.20;;;;;;4954698;24;20055;-96
2024/03/04 00:06:47;;;;;;;18.33;14.98;;;13.70;78.30;;;;;;4886994;24;20057;31
2024/03/04 00:09:12;;;;;;;17.10;14.35;;;13.70;78.30;;;;;;4777325;29;20046;-78
2024/03/04 00:11:38;;;;;;;17.58;14.93;;;13.60;78.30;;;;;;4781378;29;20042;-79
2024/03/04 00:14:04;;;;;;;16.42;13.98;;;13.60;78.30;;;;;;4772183;30;20103;-96
2024/03/04 00:16:30;;;;;;;17.17;13.95;;;13.60;78.40;;;;;;4788652;29;20055;-78
2024/03/04 00:18:57;;;;;;;17.65;14.93;;;13.60;78.50;;;;;;4763451;30;20035;-90
2024/03/04 00:21:27;;;;;;;16.85;14.65;;;13.60;78.50;;;;;;4787229;30;20040;-89
2024/03/04 00:23:53;;;;;;;19.35;15.57;;;13.60;78.40;;;;;;4784432;29;20589;-78
2024/03/04 00:26:19;;;;;;;19.10;14.98;;;13.50;78.40;;;;;;4780496;30;20027;-89
2024/03/04 00:28:44;;;;;;;16.10;14.15;;;13.50;78.40;;;;;;4784626;29;20035;-78
2024/03/04 00:31:12;;;;;;;18.15;14.93;;;13.50;78.50;;;;;;4846414;23;20103;-93
2024/03/04 00:33:38;;;;;;;18.58;14.85;;;13.50;78.50;;;;;;4783715;30;20023;-77
2024/03/04 00:36:07;;;;;;;17.27;15.15;;;13.50;78.50;;;;;;4851615;24;20066;-90
2024/03/04 00:38:33;;;;;;;19.73;16.05;;;13.50;78.50;;;;;;4767920;29;20639;-79
2024/03/04 00:40:59;;;;;;;18.33;14.50;;;13.40;78.50;;;;;;4790254;29;20023;-79
2024/03/04 00:43:25;;;;;;;18.83;15.45;;;13.40;78.50;;;;;;4800679;24;20534;-96
2024/03/04 00:46:05;;;;;;;17.88;14.60;;;13.40;78.60;;;;;;4933405;24;20077;-78
2024/03/04 00:48:32;;;;;;;20.65;16.10;;;13.40;78.60;;;;;;4845897;29;20086;-85
2024/03/04 00:50:57;;;;;;;20.40;15.88;;;13.40;78.70;;;;;;4814138;29;20049;-78
2024/03/04 00:53:24;;;;;;;18.20;14.98;;;13.40;78.70;;;;;;4829975;29;20484;-89
2024/03/04 00:55:49;;;;;;;19.98;15.60;;;13.30;78.60;;;;;;4819432;29;20479;-90
2024/03/04 00:58:15;;;;;;;20.58;15.32;;;13.30;78.70;;;;;;4811968;29;20505;-90
2024/03/04 01:00:42;;;;;;;20.10;16.13;;;13.30;78.70;;;;;;4812879;29;20117;-96
2024/03/04 01:03:08;;;;;;;19.73;16.23;;;13.30;78.70;;;;;;4808009;29;20737;-79
2024/03/04 01:05:34;;;;;;;20.50;15.48;;;13.30;78.70;;;;;;4807580;29;20102;-88
2024/03/04 01:07:59;;;;;;;19.65;15.98;;;13.30;78.80;;;;;;4807244;29;20022;-78
2024/03/04 01:10:25;;;;;;;18.83;15.60;;;13.30;78.80;;;;;;4816468;29;20042;-79
2024/03/04 01:12:51;;;;;;;18.85;15.75;;;13.30;78.80;;;;;;4799662;29;20046;-89
2024/03/04 01:15:17;;;;;;;19.85;15.27;;;13.20;78.80;;;;;;4835301;29;20562;-96
2024/03/04 01:17:44;;;;;;;17.38;14.73;;;13.30;78.80;;;;;;4815970;24;20058;-78
2024/03/04 01:20:13;;;;;;;17.83;14.88;;;13.20;78.80;;;;;;4803759;29;20034;-79
2024/03/04 01:22:39;;;;;;;18.40;15.02;;;13.30;78.90;;;;;;4816913;29;20056;-78
2024/03/04 01:25:05;;;;;;;18.30;15.00;;;13.20;78.80;;;;;;4818194;29;20038;-92
2024/03/04 01:27:32;;;;;;;17.50;14.88;;;13.20;78.80;;;;;;4802215;29;20038;-95
2024/03/04 01:29:58;;;;;;;17.45;14.40;;;13.20;78.80;;;;;;4806653;29;20061;-89
2024/03/04 01:32:24;;;;;;;17.38;15.05;;;13.20;78.80;;;;;;4810587;29;20049;-89
2024/03/04 01:34:49;;;;;;;17.67;13.90;;;13.20;78.80;;;;;;4821904;29;20498;-89
2024/03/04 01:37:15;;;;;;;17.85;14.73;;;13.20;78.90;;;;;;4806599;29;20022;-96
2024/03/04 01:39:41;;;;;;;17.25;13.80;;;13.20;78.90;;;;;;4796781;29;20038;-78
2024/03/04 01:42:08;;;;;;;19.02;14.88;;;13.20;78.90;;;;;;4840391;29;20105;-96
2024/03/04 01:44:37;;;;;;;17.90;13.80;;;13.20;79.00;;;;;;4813044;29;20053;-80
2024/03/04 01:47:10;;;;;;;16.55;13.68;;;13.20;79.00;;;;;;4805813;29;20029;-89
2024/03/04 01:49:38;;;;;;;17.30;14.10;;;13.20;79.00;;;;;;4815544;29;20485;-89
2024/03/04 01:52:05;;;;;;;15.57;13.85;;;13.10;79.00;;;;;;4803568;29;20125;-93
2024/03/04 01:54:38;;;;;;;19.23;14.68;;;13.10;79.00;;;;;;4813149;29;20033;-78
2024/03/04 01:57:05;;;;;;;17.75;14.80;;;13.20;79.00;;;;;;4822811;29;20030;-88
2024/03/04 01:59:32;;;;;;;16.83;14.27;;;13.10;79.00;;;;;;4816399;24;20404;-79
2024/03/04 02:01:59;;;;;;;18.30;14.45;;;13.10;79.00;;;;;;4806355;29;20763;-89
2024/03/04 02:04:26;;;;;;;16.20;13.32;;;13.10;79.00;;;;;;4814607;29;20079;-77
2024/03/04 02:06:53;;;;;;;17.23;13.73;;;13.10;79.00;;;;;;4810917;29;20056;-96
2024/03/04 02:09:20;;;;;;;17.23;13.25;;;13.10;79.00;;;;;;4827771;24;20054;-95
2024/03/04 02:11:46;;;;;;;16.80;13.73;;;13.10;79.00;;;;;;4817456;24;20102;-95
2024/03/04 02:14:12;;;;;;;16.95;13.85;;;13.10;79.00;;;;;;4920693;24;20449;-78
2024/03/04 02:16:39;;;;;;;17.20;14.05;;;13.10;79.00;;;;;;4830500;29;20403;-78
2024/03/04 02:19:08;;;;;;;17.27;13.25;;;13.10;79.00;;;;;;4807803;29;20072;-78
2024/03/04 02:21:37;;;;;;;18.35;13.75;;;13.00;79.00;;;;;;4835599;29;20041;-78
2024/03/04 02:24:03;;;;;;;17.05;13.77;;;13.10;79.00;;;;;;4816653;29;20072;-79
2024/03/04 02:26:30;;;;;;;15.00;12.70;;;13.00;79.00;;;;;;4820660;29;20057;-90
2024/03/04 02:28:56;;;;;;;15.55;13.40;;;13.00;79.00;;;;;;4805199;29;20117;-79
2024/03/04 02:31:22;;;;;;;16.60;14.27;;;13.00;79.00;;;;;;4824260;29;20453;-89
2024/03/04 02:33:50;;;;;;;14.93;12.63;;;13.00;79.00;;;;;;4818707;29;20054;-96
2024/03/04 02:36:17;;;;;;;18.33;13.75;;;13.00;79.00;;;;;;4805875;29;20034;-89
2024/03/04 02:38:43;;;;;;;16.83;14.02;;;13.00;79.10;;;;;;4815614;29;20095;-79
2024/03/04 02:41:09;;;;;;;15.85;13.20;;;13.00;79.10;;;;;;4829032;29;20121;-79
2024/03/04 02:43:35;;;;;;;18.60;14.57;;;13.00;79.10;;;;;;4829031;29;20037;-96
2024/03/04 02:46:01;;;;;;;18.48;14.45;;;13.00;79.10;;;;;;4793091;24;21583;-78
2024/03/04 02:48:27;;;;;;;15.88;13.70;;;13.00;79.20;;;;;;4805787;29;20042;-79
2024/03/04 02:50:53;;;;;;;18.52;14.70;;;13.00;79.10;;;;;;4767418;29;20025;-90
2024/03/04 02:53:18;;;;;;;19.73;14.77;;;13.00;79.10;;;;;;4774726;29;20055;-87
2024/03/04 02:55:47;;;;;;;19.92;15.55;;;13.00;79.10;;;;;;4787810;29;20113;-79
2024/03/04 02:58:12;;;;;;;19.63;15.00;;;12.90;79.10;;;;;;4804676;29;20038;-90
2024/03/04 03:00:39;;;;;;;20.63;15.48;;;12.90;79.10;;;;;;4804241;29;20055;-78
2024/03/04 03:03:05;;;;;;;19.65;15.82;;;12.90;79.10;;;;;;4780115;29;20077;-94
2024/03/04 03:05:34;;;;;;;19.90;15.25;;;12.90;79.10;;;;;;4788243;29;20113;-90
2024/03/04 03:08:00;;;;;;;20.38;15.75;;;12.90;79.10;;;;;;4804422;29;20033;-96
2024/03/04 03:10:28;;;;;;;18.40;14.85;;;12.90;79.10;;;;;;4790960;29;20073;-79
2024/03/04 03:12:53;;;;;;;19.73;15.45;;;12.90;79.10;;;;;;4790297;29;20034;-78
2024/03/04 03:15:19;;;;;;;18.42;14.38;;;12.90;79.10;;;;;;4780001;29;20034;-78
2024/03/04 03:17:45;;;;;;;17.48;14.20;;;12.90;79.10;;;;;;4811586;29;20370;-96
2024/03/04 03:20:17;;;;;;;19.92;14.43;;;12.90;79.10;;;;;;4799217;29;20090;-96
2024/03/04 03:22:51;;;;;;;19.00;15.50;;;12.80;79.10;;;;;;4773606;29;20031;-79
2024/03/04 03:25:17;;;;;;;;;;;12.90;79.10;;;;;;4810018;29;20061;-88
2024/03/04 03:27:44;;;;;;;16.55;12.35;;;12.80;79.10;;;;;;4836105;24;20040;-78
2024/03/04 03:30:10;;;;;;;17.90;12.88;;;12.80;79.10;;;;;;4830683;29;20030;-90
2024/03/04 03:32:37;;;;;;;16.67;12.95;;;12.80;79.20;;;;;;4823377;29;20034;-78
2024/03/04 03:35:04;;;;;;;15.52;12.52;;;12.80;79.20;;;;;;4812696;29;20041;-89
2024/03/04 03:37:30;;;;;;;17.25;12.18;;;12.80;79.20;;;;;;4825999;29;20037;-78
2024/03/04 03:39:57;;;;;;;16.42;12.38;;;12.80;79.20;;;;;;4836837;29;20101;-78
2024/03/04 03:42:23;;;;;;;14.68;11.52;;;12.80;79.20;;;;;;4827638;29;20117;-95
2024/03/04 03:44:48;;;;;;;15.40;11.18;;;12.80;79.20;;;;;;4817618;29;20034;-78
2024/03/04 03:47:17;;;;;;;13.27;9.82;;;12.80;79.20;;;;;;4811700;29;20030;-80
2024/03/04 03:49:44;;;;;;;12.73;9.70;;;12.80;79.20;;;;;;4808184;29;20079;-95
2024/03/04 03:52:11;;;;;;;11.65;9.25;;;12.80;79.20;;;;;;4820557;29;20044;-78
2024/03/04 03:54:38;;;;;;;10.35;8.43;;;12.80;79.20;;;;;;4814097;29;20443;-78
2024/03/04 03:57:04;;;;;;;12.48;8.50;;;12.80;79.20;;;;;;4825235;29;20040;-78
2024/03/04 03:59:30;;;;;;;10.57;8.15;;;12.70;79.20;;;;;;4823386;29;20050;-90
2024/03/04 04:01:56;;;;;;;11.60;7.88;;;12.70;79.20;;;;;;4834867;29;20037;-89
2024/03/04 04:04:25;;;;;;;10.23;7.40;;;12.80;79.20;;;;;;4819094;29;20505;-79
2024/03/04 04:06:51;;;;;;;10.05;7.75;;;12.70;79.10;;;;;;4817396;29;20038;-90
2024/03/04 04:09:17;;;;;;;9.43;7.35;;;12.70;79.20;;;;;;4809061;29;20555;-78
2024/03/04 04:11:44;;;;;;;9.90;7.10;;;12.70;79.20;;;;;;4839676;29;20035;-79
2024/03/04 04:14:10;;;;;;;10.38;6.57;;;12.70;79.20;;;;;;4826230;29;20068;-89
2024/03/04 04:16:37;;;;;;;9.95;6.57;;;12.70;79.20;;;;;;4810211;29;20463;-80
2024/03/04 04:19:04;;;;;;;8.60;6.35;;;12.70;79.20;;;;;;4922522;24;20511;-78
2024/03/04 04:21:31;;;;;;;9.98;6.07;;;12.70;79.20;;;;;;4806399;29;20142;-90
2024/03/04 04:23:57;;;;;;;7.78;6.47;;;12.70;79.20;;;;;;4822102;29;20488;-90
2024/03/04 04:26:26;;;;;;;8.20;5.97;;;12.60;79.10;;;;;;4824503;29;20515;-79
2024/03/04 04:28:52;;;;;;;8.70;6.05;;;12.70;79.10;;;;;;4832134;29;20098;-95
2024/03/04 04:31:38;;;;;;;7.40;5.72;;;12.70;79.60;;;;;;4827267;24;20061;-93
2024/03/04 04:34:04;;;;;;;7.95;5.75;;;12.70;79.20;;;;;;4822693;29;20026;-79
2024/03/04 04:36:30;;;;;;;7.88;5.63;;;12.70;79.20;;;;;;4808241;29;20510;-79
2024/03/04 04:38:56;;;;;;;7.97;5.50;;;12.60;79.10;;;;;;4805324;29;20061;-79
2024/03/04 04:41:21;;;;;;;9.18;5.75;;;12.70;79.20;;;;;;4832126;29;20052;-90
2024/03/04 04:43:47;;;;;;;7.95;5.30;;;12.60;79.10;;;;;;4809245;29;20037;-89
2024/03/04 04:46:13;;;;;;;9.85;6.05;;;12.60;79.10;;;;;;4809867;29;20457;-78
2024/03/04 04:48:40;;;;;;;8.82;5.75;;;12.60;79.10;;;;;;4839805;29;20026;-80
2024/03/04 04:51:06;;;;;;;8.98;5.47;;;12.60;79.20;;;;;;4822617;29;20026;-89
2024/03/04 04:53:32;;;;;;;7.70;5.47;;;12.60;79.20;;;;;;4825489;29;20041;-79
2024/03/04 04:55:58;;;;;;;7.57;5.45;;;12.60;79.10;;;;;;4822655;29;20030;-79
2024/03/04 04:58:23;;;;;;;7.45;5.20;;;12.60;79.10;;;;;;4809656;29;20148;-90
2024/03/04 05:00:52;;;;;;;8.07;5.53;;;12.60;79.10;;;;;;4823739;29;20133;-78
2024/03/04 05:03:18;;;;;;;7.75;5.15;;;12.60;79.10;;;;;;4818721;29;20151;-89
2024/03/04 05:05:44;;;;;;;7.43;5.68;;;12.60;79.10;;;;;;4803121;29;20193;-80
2024/03/04 05:08:10;;;;;;;7.30;5.28;;;12.60;79.10;;;;;;4811153;29;20033;-94
2024/03/04 05:10:39;;;;;;;7.95;5.40;;;12.50;79.00;;;;;;4813813;29;20368;-78
2024/03/04 05:13:05;;;;;;;9.50;6.15;;;12.60;79.10;;;;;;4816113;29;20027;-89
2024/03/04 05:15:31;;;;;;;6.90;5.15;;;12.50;79.00;;;;;;4798459;29;20034;-90
2024/03/04 05:17:58;;;;;;;7.20;5.40;;;12.50;79.00;;;;;;4806757;29;20278;-96
2024/03/04 05:20:23;;;;;;;7.05;5.40;;;12.50;79.10;;;;;;4972186;24;20065;-78
2024/03/04 05:22:49;;;;;;;7.90;5.57;;;12.50;79.10;;;;;;4810056;29;20046;-78
2024/03/04 05:25:15;;;;;;;7.35;5.28;;;12.50;79.10;;;;;;4799508;29;20030;-89
2024/03/04 05:27:41;;;;;;;7.35;5.25;;;12.50;79.10;;;;;;4815102;29;20109;-89
2024/03/04 05:30:08;;;;;;;8.02;6.07;;;12.50;79.00;;;;;;4797726;29;20186;-79
2024/03/04 05:32:34;;;;;;;7.10;4.88;;;12.50;79.10;;;;;;4819421;29;20036;-90
2024/03/04 05:34:59;;;;;;;7.43;5.25;;;12.50;79.10;;;;;;4813955;29;20030;-96
2024/03/04 05:37:25;;;;;;;6.85;5.00;;;12.50;79.10;;;;;;4806058;29;20395;-79
2024/03/04 05:39:51;;;;;;;7.68;5.72;;;12.50;79.10;;;;;;4839303;29;20071;-95
2024/03/04 05:42:17;;;;;;;7.78;5.50;;;12.50;79.10;;;;;;4827979;29;20030;-78
2024/03/04 05:44:42;;;;;;;7.38;5.22;;;12.50;79.10;;;;;;4823001;29;20058;-79
2024/03/04 05:47:08;;;;;;;7.88;5.55;;;12.50;79.10;;;;;;4822242;29;20030;-79
2024/03/04 05:49:35;;;;;;;7.65;5.07;;;12.50;79.20;;;;;;4825475;29;20034;-92
2024/03/04 05:52:02;;;;;;;7.47;4.85;;;12.50;79.20;;;;;;4798336;29;20026;-80
2024/03/04 05:54:27;;;;;;;6.68;4.43;;;12.50;79.20;;;;;;4809574;29;20050;-80
2024/03/04 05:56:53;;;;;;;6.68;4.90;;;12.40;79.10;;;;;;4805401;29;20034;-79
2024/03/04 05:59:19;;;;;;;7.18;4.95;;;12.40;79.10;;;;;;4823958;29;20477;-79
2024/03/04 06:01:47;;;;;;;7.68;5.20;;;12.40;79.10;;;;;;4805776;29;20025;-91
2024/03/04 06:04:13;;;;;;;7.15;4.80;;;12.40;79.10;;;;;;4825945;29;20030;-80
2024/03/04 06:06:40;;;;;;;7.60;4.95;;;12.40;79.10;;;;;;4812637;29;20192;-80
2024/03/04 06:09:08;;;;;;;6.05;4.72;;;12.40;79.20;;;;;;4846760;29;20040;-79
2024/03/04 06:11:34;;;;;;;7.10;4.65;;;12.40;79.20;;;;;;4823098;29;20038;-89
2024/03/04 06:14:00;;;;;;;5.90;4.10;;;12.40;79.20;;;;;;4815058;29;20053;-90
2024/03/04 06:16:26;;;;;;;6.88;4.20;;;12.40;79.20;;;;;;4811805;29;20106;-79
2024/03/04 06:18:52;;;;;;;6.45;4.47;;;12.40;79.20;;;;;;4828716;29;20800;-92
2024/03/04 06:21:17;;;;;;;6.50;4.28;;;12.40;79.20;;;;;;4811576;29;20126;-85
2024/03/04 06:23:43;;;;;;;6.13;4.30;;;12.40;79.20;;;;;;4814568;29;20044;-92
2024/03/04 06:26:11;;;;;;;6.05;4.18;;;12.40;79.20;;;;;;4808099;29;20472;-87
2024/03/04 06:28:37;;;;;;;5.57;4.10;;;12.30;79.10;;;;;;4825333;29;20090;-81
2024/03/04 06:31:03;;;;;;;5.95;4.10;;;12.30;79.20;;;;;;4808272;29;20038;-95
2024/03/04 06:33:29;;;;;;;5.55;3.83;;;12.30;79.80;;;;;;4814340;29;20475;-78
2024/03/04 06:35:54;;;;;;;5.88;3.53;;;12.30;79.20;;;;;;4824023;29;20036;-96
2024/03/04 06:38:20;;;;;;;6.82;3.97;;;12.30;79.20;;;;;;4830083;29;20067;-95
2024/03/04 06:40:46;;;;;;;4.93;3.58;;;12.30;79.20;;;;;;4814946;29;20030;-90
2024/03/04 06:43:12;;;;;;;5.60;3.83;;;12.30;79.20;;;;;;4817591;29;20010;-79
2024/03/04 06:45:37;;;;;;;5.97;3.83;;;12.30;79.20;;;;;;4822978;29;20131;-95
2024/03/04 06:48:04;;;;;;;5.38;3.67;;;12.30;79.20;;;;;;4815258;29;20033;-80
2024/03/04 06:50:32;;;;;;;4.68;3.55;;;12.30;79.20;;;;;;4823219;29;20022;-81
2024/03/04 06:52:59;;;;;;;5.50;3.30;;;12.30;79.30;;;;;;4806413;29;20032;-80
2024/03/04 06:55:26;;;;;;;4.85;3.30;;;12.30;79.30;;;;;;4837858;29;20075;-80
2024/03/04 06:57:51;;;;;;;4.80;3.47;;;12.30;79.30;;;;;;4825757;29;20130;-79
2024/03/04 07:00:17;;;;;;;5.00;3.50;;;12.30;79.30;;;;;;4824613;29;20030;-80
2024/03/04 07:02:43;;;;;;;5.25;3.67;;;12.20;79.30;;;;;;4841968;29;20042;-81
2024/03/04 07:05:09;;;;;;;4.82;3.60;;;12.30;79.30;;;;;;4826334;29;20449;-88
2024/03/04 07:07:35;;;;;;;4.65;3.40;;;12.30;79.30;;;;;;4817194;29;20034;-88
2024/03/04 07:10:01;;;;;;;4.45;3.08;;;12.20;79.30;;;;;;4823933;29;20073;-88
2024/03/04 07:12:27;;;;;;;4.25;3.08;;;12.20;79.30;;;;;;4812434;29;20502;-88
2024/03/04 07:14:52;;;;;;;4.45;3.05;;;12.20;79.30;;;;;;4808876;29;20072;-81
2024/03/04 07:17:18;;;;;;;5.38;3.20;;;12.20;79.40;;;;;;4822656;29;20023;-88
2024/03/04 07:19:44;;;;;;;5.97;3.53;;;12.20;80.00;;;;;;4827836;29;20865;-88
2024/03/04 07:22:09;;;;;;;5.40;3.38;;;12.20;79.30;;;;;;4811796;29;20540;-81
2024/03/04 07:24:35;;;;;;;4.30;3.10;;;12.20;79.30;;;;;;4820120;29;20034;-81
2024/03/04 07:27:01;;;;;;;5.20;3.78;;;12.20;79.30;;;;;;4826345;29;20113;-79
2024/03/04 07:29:27;;;;;;;5.07;3.38;;;12.20;80.00;;;;;;4816930;29;20117;-82
2024/03/04 07:31:52;;;;;;;5.25;3.28;;;12.20;79.40;;;;;;4810001;29;20049;-81
2024/03/04 07:34:22;;;;;;;4.72;3.28;;;12.20;79.40;;;;;;4810544;29;20029;-92
2024/03/04 07:36:48;;;;;;;5.40;3.35;;;12.20;79.40;;;;;;4803558;29;20481;-80
2024/03/04 07:39:16;;;;;;;5.00;3.10;;;12.20;80.00;;;;;;4837110;29;20034;-81
2024/03/04 07:41:43;;;;;;;4.47;3.13;;;12.20;79.30;;;;;;4807709;29;20217;-89
2024/03/04 07:44:10;;;;;;;4.63;3.15;;;12.20;79.30;;;;;;4808636;29;20026;-81
2024/03/04 07:46:38;;;;;;;5.30;3.35;;;12.20;79.30;;;;;;4813931;29;20014;-81
2024/03/04 07:49:04;;;;;;;5.28;3.08;;;12.20;79.30;;;;;;4833928;29;20030;-80
2024/03/04 07:51:30;;;;;;;4.53;3.47;;;12.20;79.30;;;;;;4808437;29;20025;-80
2024/03/04 07:53:56;;;;;;;5.43;3.50;;;12.20;79.40;;;;;;4809535;29;20345;-96
2024/03/04 07:56:22;;;;;;;5.53;3.63;;;12.20;79.40;;;;;;4803983;29;20042;-80
2024/03/04 07:58:47;;;;;;;4.68;3.35;;;12.20;79.40;;;;;;4822886;29;20041;-96
2024/03/04 08:01:13;;;;;;;4.68;3.25;;;12.20;79.40;;;;;;4824215;29;20050;-81
2024/03/04 08:03:39;;;;;;;4.18;3.05;;;12.20;79.40;;;;;;4804298;29;20128;-79
2024/03/04 08:06:05;;;;;;;4.80;3.28;;;12.20;79.40;;;;;;4807005;29;20022;-80
2024/03/04 08:08:32;;;;;;;5.28;3.40;;;12.20;79.40;;;;;;4811997;29;20026;-96
2024/03/04 08:10:58;;;;;;;4.72;3.25;;;12.20;79.40;;;;;;4806821;29;20193;-88
2024/03/04 08:13:23;;;;;;;5.15;3.38;;;12.20;79.40;;;;;;4824018;29;20120;-80
2024/03/04 08:15:49;;;;;;;5.45;3.50;;;12.20;79.40;;;;;;4809372;29;20042;-79
2024/03/04 08:18:15;;;;;;;5.05;3.58;;;12.20;79.40;;;;;;4806262;29;20044;-89
2024/03/04 08:20:41;;;;;;;5.55;3.50;;;12.20;79.40;;;;;;4816648;29;20050;-89
2024/03/04 08:23:06;;;;;;;5.65;3.45;;;12.20;79.40;;;;;;4809205;29;20041;-89
2024/03/04 08:25:32;;;;;;;6.30;3.40;;;12.20;79.50;;;;;;4824762;29;20033;-88
2024/03/04 08:27:58;;;;;;;4.88;3.50;;;12.20;79.40;;;;;;4825331;29;20034;-89
2024/03/04 08:30:24;;;;;;;4.97;3.20;;;12.20;79.50;;;;;;4820978;29;20066;-80
2024/03/04 08:32:53;;;;;;;4.63;3.10;;;12.20;79.50;;;;;;4809403;29;20034;-80
2024/03/04 08:35:19;;;;;;;6.57;3.38;;;12.20;79.40;;;;;;4802502;29;20037;-79
2024/03/04 08:37:46;;;;;;;4.47;3.08;;;12.20;79.40;;;;;;4815760;29;20066;-79
2024/03/04 08:40:13;;;;;;;5.47;3.70;;;12.20;79.40;;;;;;4825089;29;20101;-96
2024/03/04 08:42:41;;;;;;;5.72;3.60;;;12.20;79.30;;;;;;4815857;29;20041;-95
2024/03/04 08:45:07;;;;;;;4.50;3.20;;;12.30;79.40;;;;;;4829088;29;20034;-80
2024/03/04 08:47:33;;;;;;;4.20;3.17;;;12.30;79.30;;;;;;4838740;29;20026;-79
2024/03/04 08:50:00;;;;;;;5.32;3.33;;;12.30;79.40;;;;;;4820542;29;20039;-96
2024/03/04 08:52:27;;;;;;;6.28;3.67;;;12.30;79.40;;;;;;4823868;29;20035;-80
2024/03/04 08:54:53;;;;;;;4.85;3.20;;;12.30;79.30;;;;;;4810586;29;20034;-78
2024/03/04 08:57:19;;;;;;;5.80;3.72;;;12.30;79.30;;;;;;4830667;29;20041;-80
2024/03/04 08:59:45;;;;;;;4.97;3.13;;;12.30;79.30;;;;;;4806171;29;20543;-88
2024/03/04 09:02:17;;;;;;;5.20;3.30;;;12.30;79.30;;;;;;4812763;29;20041;-96
2024/03/04 09:04:43;;;;;;;4.95;3.22;;;12.30;79.30;;;;;;4832862;29;20042;-80
2024/03/04 09:07:09;;;;;;;5.05;3.25;;;12.30;79.30;;;;;;4834077;29;20070;-96
2024/03/04 09:09:35;;;;;;;4.68;2.97;;;12.30;79.30;;;;;;4898447;24;20938;-96
2024/03/04 09:12:04;;;;;;;3.80;3.00;;;12.30;79.30;;;;;;4830100;29;20031;-96
2024/03/04 09:14:30;;;;;;;4.57;2.95;;;12.30;79.30;;;;;;4826178;29;20028;-80
2024/03/04 09:16:56;;;;;;;4.82;3.20;;;12.40;79.30;;;;;;4808335;29;20030;-80
2024/03/04 09:19:22;;;;;;;4.93;3.08;;;12.40;79.30;;;;;;4865366;24;20141;-80
2024/03/04 09:21:48;;;;;;;4.22;2.95;;;12.40;79.30;;;;;;4801577;29;20569;-80
2024/03/04 09:24:14;;;;;;;3.78;2.70;;;12.40;79.30;;;;;;4833603;29;20042;-81
2024/03/04 09:26:46;;;;;;;4.93;3.10;;;12.40;79.30;;;;;;4800840;29;20025;-88
2024/03/04 09:29:13;;;;;;;4.30;2.80;;;12.50;79.30;;;;;;4930968;24;20061;-80
2024/03/04 09:31:40;;;;;;;4.00;2.90;;;12.50;79.20;;;;;;4808230;29;20071;-88
2024/03/04 09:34:06;;;;;;;4.78;3.17;;;12.50;79.20;;;;;;4808494;29;20029;-80
2024/03/04 09:36:31;;;;;;;4.07;2.60;;;12.50;79.10;;;;;;4813120;29;20065;-96
2024/03/04 09:41:44;;;;;;;3.67;2.42;;;12.60;79.10;;;;;;4793906;29;20469;-79
2024/03/04 09:44:09;;;;;;;4.15;2.80;;;12.60;79.00;;;;;;4778889;29;20064;-88
2024/03/04 09:46:38;;;;;;;4.18;2.70;;;12.60;79.00;;;;;;4780295;29;20031;-80
2024/03/04 09:49:05;;;;;;;6.00;2.95;;;12.70;79.00;;;;;;4787627;29;20035;-90
2024/03/04 09:51:32;;;;;;;4.70;2.65;;;12.70;79.00;;;;;;4768080;30;20027;-89
2024/03/04 09:53:59;;;;;;;4.93;2.90;;;12.70;79.00;;;;;;4772985;29;20015;-93
2024/03/04 09:56:26;;;;;;;4.40;2.58;;;12.70;79.00;;;;;;4781109;29;20023;-79
2024/03/04 09:58:53;;;;;;;3.95;2.60;;;12.70;78.90;;;;;;4787883;29;20043;-79
2024/03/04 10:01:19;;;;;;;3.97;2.65;;;12.80;78.90;;;;;;4777970;29;20022;-79
2024/03/04 10:03:46;;;;;;;3.85;2.38;;;12.80;79.00;;;;;;4789333;29;20500;-90
2024/03/04 10:06:12;;;;;;;4.25;2.88;;;12.80;78.90;;;;;;4792204;29;20064;-92
2024/03/04 10:08:38;;;;;;;4.32;2.53;;;12.80;78.90;;;;;;4800481;29;20023;-78
2024/03/04 10:11:04;;;;;;;4.68;2.70;;;12.80;78.90;;;;;;4763771;29;20059;-80
2024/03/04 10:13:30;;;;;;;4.00;2.70;;;12.90;78.90;;;;;;4793896;29;20023;-78
2024/03/04 10:15:55;;;;;;;4.45;2.67;;;12.90;78.90;;;;;;4780693;29;20069;-78
2024/03/04 10:18:21;;;;;;;3.63;2.38;;;13.00;78.90;;;;;;4774348;29;20045;-95
2024/03/04 10:20:47;;;;;;;4.50;2.40;;;12.90;78.80;;;;;;4799736;29;20035;-79
2024/03/04 10:23:13;;;;;;;3.80;2.60;;;13.00;78.90;;;;;;4776937;29;20519;-78
2024/03/04 10:25:40;;;;;;;4.07;2.70;;;13.00;78.80;;;;;;4787453;29;20412;-78
2024/03/04 10:28:06;;;;;;;4.57;2.58;;;13.00;78.80;;;;;;4777894;29;20441;-78
2024/03/04 10:30:32;;;;;;;5.00;2.90;;;13.00;78.70;;;;;;4798786;29;20031;-79
2024/03/04 10:33:05;;;;;;;4.00;2.55;;;13.10;78.80;;;;;;4784073;29;20034;-79
2024/03/04 10:35:31;;;;;;;5.13;2.58;;;13.10;78.80;;;;;;4787446;30;20023;-87
2024/03/04 10:38:02;;;;;;;4.90;2.50;;;13.10;78.70;;;;;;4785302;29;20034;-86
2024/03/04 10:40:31;;;;;;;3.70;2.30;;;13.20;78.70;;;;;;4790069;29;20063;-92
2024/03/04 10:42:59;;;;;;;3.55;2.30;;;13.20;78.70;;;;;;4771833;29;20023;-87
2024/03/04 10:45:31;;;;;;;3.92;2.42;;;13.20;78.60;;;;;;4785466;29;20030;-79
2024/03/04 10:47:58;;;;;;;4.05;2.25;;;13.20;78.60;;;;;;4778725;29;20030;-91
2024/03/04 10:50:28;;;;;;;3.70;2.17;;;13.20;78.60;;;;;;4787814;29;20038;-79
2024/03/04 10:52:54;;;;;;;4.63;2.30;;;13.30;78.60;;;;;;4792424;29;20035;-86
2024/03/04 10:55:20;;;;;;;3.97;2.30;;;13.30;78.50;;;;;;4774966;29;20046;-78
2024/03/04 10:57:51;;;;;;;5.00;2.47;;;13.30;78.50;;;;;;4784401;29;20613;-91
2024/03/04 11:00:30;;;;;;;4.10;2.10;;;13.40;78.50;;;;;;4770964;29;20037;-92
2024/03/04 11:03:17;;;;;;;3.67;1.98;;;13.40;78.50;;;;;;4790017;29;20451;-77
2024/03/04 11:05:50;;;;;;;3.22;2.17;;;13.40;78.40;;;;;;4767583;29;20069;-87
2024/03/04 11:08:36;;;;;;;3.25;2.08;;;13.50;78.40;;;;;;4773195;29;20066;-91
2024/03/04 11:11:12;;;;;;;3.10;2.10;;;13.50;78.40;;;;;;4781374;29;20045;-77
2024/03/04 11:14:03;;;;;;;3.95;2.20;;;13.60;78.40;;;;;;4775301;29;20027;-79
2024/03/04 11:16:58;;;;;;;4.60;2.33;;;13.60;78.40;;;;;;4787805;29;20027;-78
2024/03/04 11:19:52;;;;;;;2.58;2.00;;;13.60;78.30;;;;;;4774458;29;20126;-91
2024/03/04 11:22:18;;;;;;;3.13;2.03;;;13.70;78.30;;;;;;4776548;29;20042;-80
2024/03/04 11:24:48;;;;;;;3.80;2.00;;;13.70;78.40;;;;;;4779022;30;20038;-95
2024/03/04 11:27:16;;;;;;;3.90;1.98;;;13.70;78.40;;;;;;4774951;29;20081;-79
2024/03/04 11:29:42;;;;;;;2.92;2.00;;;13.70;78.30;;;;;;4798286;29;20064;-87
2024/03/04 11:32:09;;;;;;;3.45;2.13;;;13.80;78.30;;;;;;4773874;29;20499;-78
2024/03/04 11:34:58;;;;;;;3.30;2.00;;;13.80;78.30;;;;;;4781230;29;20023;-78
2024/03/04 11:37:31;;;;;;;3.05;1.80;;;13.90;78.30;;;;;;4789908;29;20058;-90
2024/03/04 11:40:00;;;;;;;2.60;1.83;;;13.90;78.30;;;;;;4788452;29;20085;-88
2024/03/04 11:42:33;;;;;;;2.63;1.70;;;13.90;78.20;;;;;;4772386;29;20068;-79
2024/03/04 11:45:00;;;;;;;2.25;1.60;;;14.00;78.20;;;;;;4785178;29;20039;-78
2024/03/04 11:47:32;;;;;;;2.47;1.73;;;14.00;78.20;;;;;;4785523;29;20048;-78
2024/03/04 11:49:58;;;;;;;2.90;1.80;;;14.00;78.20;;;;;;4781942;29;20038;-87
2024/03/04 11:52:26;;;;;;;2.17;1.60;;;14.10;78.20;;;;;;4777387;29;20046;-79
2024/03/04 11:54:54;;;;;;;2.28;1.80;;;14.10;78.20;;;;;;4780876;30;20038;-92
2024/03/04 11:57:20;;;;;;;2.40;1.65;;;14.10;78.10;;;;;;4789136;29;20031;-78
2024/03/04 12:00:15;;;;;;;2.40;1.70;;;14.20;78.20;;;;;;4787939;29;20043;-89
2024/03/04 12:02:40;;;;;;;2.13;1.50;;;14.20;78.20;;;;;;4790972;29;20034;-79
2024/03/04 12:05:10;;;;;;;2.05;1.60;;;14.20;78.20;;;;;;4779261;29;20032;-89
2024/03/04 12:07:36;;;;;;;2.70;1.50;;;14.30;78.20;;;;;;4777148;29;20041;-88
2024/03/04 12:10:05;;;;;;;2.35;1.48;;;14.20;78.10;;;;;;4770800;29;20125;-79
2024/03/04 12:12:31;;;;;;;1.80;1.55;;;14.30;78.20;;;;;;4768673;29;20039;-89
2024/03/04 12:14:57;;;;;;;2.67;1.50;;;14.30;78.10;;;;;;4773614;29;20039;-79
2024/03/04 12:17:22;;;;;;;2.05;1.60;;;14.40;78.10;;;;;;4787908;29;20040;-91
2024/03/04 12:19:56;;;;;;;1.70;1.48;;;14.40;78.00;;;;;;4788302;29;20038;-79
2024/03/04 12:22:26;;;;;;;2.05;1.42;;;14.50;78.10;;;;;;4782302;30;20092;-94
2024/03/04 12:25:09;;;;;;;1.90;1.60;;;14.50;78.10;;;;;;4787612;29;20058;-92
2024/03/04 12:27:36;;;;;;;1.75;1.45;;;14.50;78.00;;;;;;4785021;29;20030;-89
2024/03/04 12:30:13;;;;;;;1.60;1.40;;;14.60;78.10;;;;;;4785435;29;20098;-93
2024/03/04 12:32:40;;;;;;;1.60;1.40;;;14.60;78.00;;;;;;4773770;29;20035;-87
2024/03/04 12:35:22;;;;;;;2.60;1.50;;;14.60;78.00;;;;;;4783586;29;20100;-91
2024/03/04 12:37:53;;;;;;;1.60;1.38;;;14.70;78.00;;;;;;4787436;29;20042;-79
2024/03/04 12:40:23;;;;;;;2.17;1.50;;;14.70;78.00;;;;;;4802066;29;20066;-90
2024/03/04 12:43:01;;;;;;;1.85;1.40;;;14.70;77.90;;;;;;4777629;30;20039;-78
2024/03/04 12:45:27;;;;;;;2.53;1.60;;;14.80;78.00;;;;;;4787912;29;20037;-78